createdAt,value
2019-01-20T00:02:16.187Z,15.100000
2019-01-20T00:04:46.447Z,15.100000
2019-01-20T00:07:16.812Z,17.600000
2019-01-20T00:09:47.167Z,17.600000
2019-01-20T00:12:17.440Z,15.800000
2019-01-20T00:14:47.760Z,15.800000
2019-01-20T00:17:18.063Z,15.100000
2019-01-20T00:19:48.513Z,15.100000
2019-01-20T00:22:18.856Z,13.200000
2019-01-20T00:24:49.301Z,13.200000
2019-01-20T00:27:19.641Z,13.200000
2019-01-20T00:29:49.972Z,13.200000
2019-01-20T00:32:20.188Z,13.500000
2019-01-20T00:34:50.462Z,13.500000
2019-01-20T00:37:20.877Z,11.600000
2019-01-20T00:39:51.215Z,11.600000
2019-01-20T00:42:21.455Z,12.500000
2019-01-20T00:44:51.876Z,12.500000
2019-01-20T00:47:22.116Z,15.500000
2019-01-20T00:49:52.513Z,15.500000
2019-01-20T00:52:22.899Z,11.000000
2019-01-20T00:54:53.234Z,11.000000
2019-01-20T00:57:23.563Z,13.400000
2019-01-20T00:59:53.886Z,13.400000
2019-01-20T01:02:24.244Z,11.500000
2019-01-20T01:04:54.579Z,11.500000
2019-01-20T01:07:24.905Z,13.000000
2019-01-20T01:09:55.250Z,13.000000
2019-01-20T01:12:25.673Z,9.800000
2019-01-20T01:14:55.950Z,9.800000
2019-01-20T01:17:26.242Z,10.400000
2019-01-20T01:19:56.473Z,10.400000
2019-01-20T01:22:26.890Z,10.000000
2019-01-20T01:24:57.137Z,10.000000
2019-01-20T01:27:27.477Z,10.200000
2019-01-20T01:29:57.711Z,10.200000
2019-01-20T01:32:27.958Z,9.200000
2019-01-20T01:34:58.226Z,9.200000
2019-01-20T01:37:28.598Z,9.200000
2019-01-20T01:39:58.917Z,9.200000
2019-01-20T01:42:29.251Z,8.500000
2019-01-20T01:44:59.538Z,8.500000
2019-01-20T01:47:29.843Z,9.400000
2019-01-20T01:50:00.217Z,9.400000
2019-01-20T01:52:30.602Z,7.200000
2019-01-20T01:55:00.945Z,7.200000
2019-01-20T01:57:31.173Z,5.800000
2019-01-20T02:00:01.434Z,5.800000
2019-01-20T02:02:31.765Z,5.600000
2019-01-20T02:05:02.183Z,5.600000
2019-01-20T02:07:32.443Z,10.600000
2019-01-20T02:10:02.693Z,10.600000
2019-01-20T02:12:32.915Z,12.600000
2019-01-20T02:15:03.150Z,12.600000
2019-01-20T02:17:33.711Z,11.000000
2019-01-20T02:20:03.952Z,11.000000
2019-01-20T02:22:34.200Z,9.800000
2019-01-20T02:25:04.443Z,9.800000
2019-01-20T02:27:34.683Z,11.700000
2019-01-20T02:30:04.943Z,11.700000
2019-01-20T02:32:35.335Z,9.500000
2019-01-20T02:35:05.747Z,9.500000
2019-01-20T02:37:36.185Z,11.000000
2019-01-20T02:40:06.525Z,11.000000
2019-01-20T02:42:36.871Z,13.900000
2019-01-20T02:45:07.215Z,13.900000
2019-01-20T02:47:37.479Z,12.700000
2019-01-20T02:50:07.823Z,12.700000
2019-01-20T02:52:38.284Z,10.000000
2019-01-20T02:55:08.917Z,10.000000
2019-01-20T02:57:39.442Z,8.600000
2019-01-20T03:00:09.859Z,8.600000
2019-01-20T03:02:40.190Z,8.400000
2019-01-20T03:05:15.433Z,8.400000
2019-01-20T03:07:45.813Z,11.100000
2019-01-20T03:10:16.067Z,11.100000
2019-01-20T03:12:46.431Z,14.800000
2019-01-20T03:15:16.703Z,14.800000
2019-01-20T03:17:46.943Z,13.400000
2019-01-20T03:20:17.288Z,13.400000
2019-01-20T03:22:47.611Z,10.900000
2019-01-20T03:25:17.918Z,10.900000
2019-01-20T03:27:48.190Z,11.300000
2019-01-20T03:30:18.531Z,11.300000
2019-01-20T03:32:48.858Z,8.600000
2019-01-20T03:35:24.212Z,8.600000
2019-01-20T03:37:54.494Z,8.500000
2019-01-20T03:40:24.748Z,8.500000
2019-01-20T03:42:55.005Z,8.800000
2019-01-20T03:45:25.447Z,8.800000
2019-01-20T03:47:55.869Z,5.200000
2019-01-20T03:50:26.197Z,5.200000
2019-01-20T03:52:56.431Z,7.900000
2019-01-20T03:55:26.660Z,7.900000
2019-01-20T03:57:56.912Z,5.300000
2019-01-20T04:00:27.234Z,5.300000
2019-01-20T04:02:57.476Z,8.900000
2019-01-20T04:05:27.891Z,8.900000
2019-01-20T04:07:58.236Z,8.400000
2019-01-20T04:10:28.583Z,8.400000
2019-01-20T04:12:58.940Z,6.500000
2019-01-20T04:15:29.242Z,6.500000
2019-01-20T04:17:59.582Z,9.000000
2019-01-20T04:20:29.907Z,9.000000
2019-01-20T04:23:00.142Z,10.100000
2019-01-20T04:25:30.495Z,10.100000
2019-01-20T04:28:00.911Z,8.400000
2019-01-20T04:30:31.245Z,8.400000
2019-01-20T04:33:01.591Z,10.400000
2019-01-20T04:35:31.925Z,10.400000
2019-01-20T04:38:02.246Z,11.000000
2019-01-20T04:40:32.741Z,11.000000
2019-01-20T04:43:03.205Z,11.400000
2019-01-20T04:45:33.437Z,11.400000
2019-01-20T04:48:03.755Z,8.500000
2019-01-20T04:50:34.080Z,6.500000
2019-01-20T04:53:04.309Z,6.500000
2019-01-20T04:55:34.725Z,6.500000
2019-01-20T04:58:05.052Z,6.500000
2019-01-20T05:00:35.370Z,7.500000
2019-01-20T05:03:05.695Z,7.500000
2019-01-20T05:05:36.034Z,6.300000
2019-01-20T05:08:06.392Z,6.300000
2019-01-20T05:10:36.695Z,7.500000
2019-01-20T05:13:06.952Z,7.500000
2019-01-20T05:15:37.273Z,4.300000
2019-01-20T05:18:07.603Z,4.300000
2019-01-20T05:20:37.926Z,5.700000
2019-01-20T05:23:10.298Z,5.700000
2019-01-20T05:25:40.525Z,5.000000
2019-01-20T05:28:10.846Z,5.000000
2019-01-20T05:30:41.258Z,7.200000
2019-01-20T05:33:11.564Z,7.200000
2019-01-20T05:35:41.902Z,6.400000
2019-01-20T05:38:12.273Z,6.400000
2019-01-20T05:40:42.573Z,8.200000
2019-01-20T05:43:12.904Z,8.200000
2019-01-20T05:45:43.253Z,8.300000
2019-01-20T05:48:13.656Z,8.300000
2019-01-20T05:50:44.046Z,7.000000
2019-01-20T05:53:14.441Z,7.000000
2019-01-20T05:55:44.743Z,7.700000
2019-01-20T05:58:15.111Z,7.700000
2019-01-20T06:00:45.491Z,6.800000
2019-01-20T06:03:15.843Z,6.800000
2019-01-20T06:05:46.262Z,13.800000
2019-01-20T06:08:16.500Z,13.800000
2019-01-20T06:10:46.839Z,8.600000
2019-01-20T06:13:17.259Z,8.600000
2019-01-20T06:15:47.691Z,10.800000
2019-01-20T06:18:17.925Z,10.800000
2019-01-20T06:20:48.368Z,6.200000
2019-01-20T06:23:18.722Z,6.200000
2019-01-20T06:25:48.999Z,7.700000
2019-01-20T06:28:19.370Z,7.700000
2019-01-20T06:30:49.715Z,9.500000
2019-01-20T06:33:19.961Z,9.500000
2019-01-20T06:35:50.284Z,8.400000
2019-01-20T06:38:20.647Z,8.400000
2019-01-20T06:40:50.893Z,5.700000
2019-01-20T06:43:21.249Z,5.700000
2019-01-20T06:45:51.649Z,6.200000
2019-01-20T06:48:21.981Z,6.200000
2019-01-20T06:50:52.328Z,5.800000
2019-01-20T06:53:22.636Z,5.800000
2019-01-20T06:55:53.053Z,4.400000
2019-01-20T06:58:23.293Z,4.400000
2019-01-20T07:00:53.655Z,5.300000
2019-01-20T07:03:24.043Z,5.300000
2019-01-20T07:05:54.418Z,6.100000
2019-01-20T07:08:24.748Z,6.100000
2019-01-20T07:10:55.074Z,6.600000
2019-01-20T07:13:25.305Z,6.600000
2019-01-20T07:15:55.526Z,5.400000
2019-01-20T07:18:25.860Z,5.400000
2019-01-20T07:20:56.208Z,6.800000
2019-01-20T07:23:26.615Z,6.800000
2019-01-20T07:25:56.879Z,4.700000
2019-01-20T07:28:27.112Z,4.700000
2019-01-20T07:30:57.440Z,4.300000
2019-01-20T07:33:27.667Z,4.300000
2019-01-20T07:35:57.943Z,9.500000
2019-01-20T07:38:28.254Z,9.500000
2019-01-20T07:40:58.604Z,5.700000
2019-01-20T07:43:28.974Z,5.700000
2019-01-20T07:45:59.397Z,6.800000
2019-01-20T07:48:29.673Z,6.800000
2019-01-20T07:50:59.970Z,7.300000
2019-01-20T07:53:30.236Z,7.300000
2019-01-20T07:56:00.574Z,8.400000
2019-01-20T07:58:30.888Z,8.400000
2019-01-20T08:01:01.217Z,5.900000
2019-01-20T08:03:31.453Z,5.900000
2019-01-20T08:06:01.807Z,8.400000
2019-01-20T08:08:32.232Z,8.400000
2019-01-20T08:11:02.452Z,8.100000
2019-01-20T08:13:32.693Z,8.100000
2019-01-20T08:16:02.927Z,5.400000
2019-01-20T08:18:38.142Z,5.400000
2019-01-20T08:21:08.459Z,5.300000
2019-01-20T08:23:38.889Z,5.300000
2019-01-20T08:26:09.247Z,6.800000
2019-01-20T08:28:39.585Z,6.800000
2019-01-20T08:31:10.146Z,5.200000
2019-01-20T08:33:40.559Z,5.200000
2019-01-20T08:36:10.995Z,7.400000
2019-01-20T08:38:41.347Z,7.400000
2019-01-20T08:41:11.594Z,5.100000
2019-01-20T08:43:41.923Z,5.100000
2019-01-20T08:46:12.167Z,5.900000
2019-01-20T08:48:42.499Z,5.900000
2019-01-20T08:51:12.770Z,5.900000
2019-01-20T08:53:43.177Z,5.900000
2019-01-20T08:56:13.723Z,4.900000
2019-01-20T08:58:43.967Z,4.900000
2019-01-20T09:01:14.273Z,6.100000
2019-01-20T09:03:44.601Z,6.100000
2019-01-20T09:06:14.836Z,7.600000
2019-01-20T09:08:45.080Z,7.600000
2019-01-20T09:11:15.399Z,6.700000
2019-01-20T09:13:50.777Z,6.700000
2019-01-20T09:16:21.081Z,9.400000
2019-01-20T09:18:51.430Z,9.400000
2019-01-20T09:21:21.700Z,8.500000
2019-01-20T09:23:52.038Z,8.500000
2019-01-20T09:26:22.610Z,7.600000
2019-01-20T09:28:52.956Z,7.600000
2019-01-20T09:31:23.220Z,8.700000
2019-01-20T09:33:53.481Z,8.700000
2019-01-20T09:36:23.847Z,6.800000
2019-01-20T09:38:54.224Z,11.000000
2019-01-20T09:41:24.498Z,11.000000
2019-01-20T09:43:54.694Z,8.800000
2019-01-20T09:46:24.970Z,8.800000
2019-01-20T09:48:55.238Z,8.800000
2019-01-20T09:51:25.537Z,8.800000
2019-01-20T09:53:55.824Z,6.400000
2019-01-20T09:56:26.115Z,6.400000
2019-01-20T09:58:56.420Z,8.300000
2019-01-20T10:01:26.707Z,8.300000
2019-01-20T10:03:57.153Z,10.000000
2019-01-20T10:06:27.483Z,10.000000
2019-01-20T10:08:57.891Z,7.400000
2019-01-20T10:11:28.511Z,7.400000
2019-01-20T10:14:03.976Z,7.700000
2019-01-20T10:16:34.356Z,7.700000
2019-01-20T10:19:04.666Z,8.500000
2019-01-20T10:21:35.424Z,8.500000
2019-01-20T10:24:05.752Z,8.100000
2019-01-20T10:26:37.966Z,8.100000
2019-01-20T10:29:10.431Z,10.500000
2019-01-20T10:31:40.788Z,10.500000
2019-01-20T10:34:11.224Z,9.800000
2019-01-20T10:36:41.517Z,9.800000
2019-01-20T10:39:11.936Z,8.000000
2019-01-20T10:41:42.459Z,8.000000
2019-01-20T10:44:12.716Z,10.900000
2019-01-20T10:46:42.946Z,10.900000
2019-01-20T10:49:13.175Z,10.200000
2019-01-20T10:51:43.484Z,10.200000
2019-01-20T10:54:13.804Z,9.600000
2019-01-20T10:56:44.155Z,9.600000
2019-01-20T10:59:14.448Z,8.500000
2019-01-20T11:01:44.671Z,8.500000
2019-01-20T11:04:15.020Z,6.600000
2019-01-20T11:06:45.299Z,6.600000
2019-01-20T11:09:15.604Z,8.700000
2019-01-20T11:11:45.925Z,8.700000
2019-01-20T11:14:16.295Z,8.400000
2019-01-20T11:16:46.727Z,8.400000
2019-01-20T11:19:16.973Z,11.400000
2019-01-20T11:21:52.547Z,11.400000
2019-01-20T11:24:27.818Z,7.900000
2019-01-20T11:26:58.168Z,7.900000
2019-01-20T11:29:28.483Z,7.700000
2019-01-20T11:31:58.699Z,7.700000
2019-01-20T11:34:29.143Z,8.600000
2019-01-20T11:36:59.551Z,8.600000
2019-01-20T11:39:30.073Z,6.900000
2019-01-20T11:42:00.453Z,6.900000
2019-01-20T11:44:30.827Z,6.300000
2019-01-20T11:47:01.154Z,6.300000
2019-01-20T11:49:31.465Z,8.300000
2019-01-20T11:52:01.709Z,8.300000
2019-01-20T11:54:32.001Z,6.900000
2019-01-20T11:57:02.281Z,6.900000
2019-01-20T11:59:32.915Z,10.200000
2019-01-20T12:02:03.289Z,10.200000
2019-01-20T12:04:33.619Z,9.500000
2019-01-20T12:07:04.006Z,9.500000
2019-01-20T12:09:34.288Z,8.000000
2019-01-20T12:12:04.871Z,8.000000
2019-01-20T12:14:35.346Z,7.500000
2019-01-20T12:17:05.645Z,7.500000
2019-01-20T12:19:35.944Z,6.800000
2019-01-20T12:22:06.235Z,6.800000
2019-01-20T12:24:36.612Z,9.300000
2019-01-20T12:27:06.929Z,9.300000
2019-01-20T12:29:37.194Z,8.300000
2019-01-20T12:32:07.563Z,8.300000
2019-01-20T12:34:37.870Z,8.800000
2019-01-20T12:37:08.260Z,8.800000
2019-01-20T12:39:38.562Z,8.800000
2019-01-20T12:42:09.344Z,8.800000
2019-01-20T12:44:44.615Z,7.600000
2019-01-20T12:47:14.873Z,7.600000
2019-01-20T12:49:45.169Z,10.000000
2019-01-20T12:52:15.527Z,10.000000
2019-01-20T12:54:46.424Z,9.600000
2019-01-20T12:57:16.717Z,9.600000
2019-01-20T12:59:47.097Z,8.400000
2019-01-20T13:02:17.506Z,8.400000
2019-01-20T13:04:47.872Z,8.200000
2019-01-20T13:07:18.173Z,8.200000
2019-01-20T13:09:48.458Z,10.400000
2019-01-20T13:12:18.651Z,10.400000
2019-01-20T13:14:49.599Z,10.600000
2019-01-20T13:17:20.018Z,10.600000
2019-01-20T13:19:50.342Z,9.400000
2019-01-20T13:22:20.678Z,9.400000
2019-01-20T13:24:50.939Z,8.900000
2019-01-20T13:27:21.290Z,8.900000
2019-01-20T13:29:56.754Z,11.100000
2019-01-20T13:32:27.133Z,11.100000
2019-01-20T13:34:57.501Z,10.800000
2019-01-20T13:37:27.742Z,10.800000
2019-01-20T13:39:58.063Z,7.900000
2019-01-20T13:42:28.286Z,7.900000
2019-01-20T13:44:58.633Z,9.200000
2019-01-20T13:47:28.876Z,9.200000
2019-01-20T13:49:59.279Z,7.300000
2019-01-20T13:52:29.613Z,7.300000
2019-01-20T13:54:59.882Z,10.600000
2019-01-20T13:57:30.249Z,10.600000
2019-01-20T14:00:00.527Z,8.200000
2019-01-20T14:02:30.900Z,8.200000
2019-01-20T14:05:01.560Z,9.900000
2019-01-20T14:07:31.927Z,9.900000
2019-01-20T14:10:02.240Z,8.600000
2019-01-20T14:12:32.482Z,9.600000
2019-01-20T14:15:02.773Z,9.600000
2019-01-20T14:17:33.033Z,9.200000
2019-01-20T14:20:03.888Z,9.200000
2019-01-20T14:22:34.188Z,9.000000
2019-01-20T14:25:04.570Z,9.000000
2019-01-20T14:27:35.041Z,11.000000
2019-01-20T14:30:05.404Z,11.000000
2019-01-20T14:32:40.742Z,8.000000
2019-01-20T14:35:11.092Z,8.000000
2019-01-20T14:37:41.351Z,8.800000
2019-01-20T14:40:11.732Z,8.800000
2019-01-20T14:42:42.086Z,10.100000
2019-01-20T14:45:12.456Z,10.100000
2019-01-20T14:47:42.790Z,8.600000
2019-01-20T14:50:13.046Z,8.600000
2019-01-20T14:52:43.396Z,9.700000
2019-01-20T14:55:13.733Z,9.700000
2019-01-20T14:57:43.997Z,9.600000
2019-01-20T15:00:14.327Z,9.600000
2019-01-20T15:02:44.538Z,8.300000
2019-01-20T15:05:14.777Z,8.300000
2019-01-20T15:07:45.213Z,10.100000
2019-01-20T15:10:20.576Z,10.100000
2019-01-20T15:12:50.862Z,8.600000
2019-01-20T15:15:21.220Z,8.600000
2019-01-20T15:17:51.430Z,8.600000
2019-01-20T15:20:21.769Z,8.600000
2019-01-20T15:22:52.189Z,9.600000
2019-01-20T15:25:22.613Z,9.600000
2019-01-20T15:27:52.966Z,9.100000
2019-01-20T15:30:23.183Z,9.100000
2019-01-20T15:32:53.416Z,9.700000
2019-01-20T15:35:23.773Z,9.700000
2019-01-20T15:37:54.065Z,9.000000
2019-01-20T15:40:24.325Z,9.000000
2019-01-20T15:42:54.628Z,9.900000
2019-01-20T15:45:24.952Z,9.900000
2019-01-20T15:47:55.186Z,8.900000
2019-01-20T15:50:25.414Z,8.900000
2019-01-20T15:52:55.750Z,10.100000
2019-01-20T15:55:26.410Z,10.100000
2019-01-20T15:57:56.884Z,8.700000
2019-01-20T16:00:27.212Z,8.700000
2019-01-20T16:02:57.478Z,9.000000
2019-01-20T16:05:27.885Z,9.000000
2019-01-20T16:07:58.220Z,7.500000
2019-01-20T16:10:28.516Z,7.500000
2019-01-20T16:12:58.825Z,11.600000
2019-01-20T16:15:29.258Z,11.600000
2019-01-20T16:17:59.668Z,9.300000
2019-01-20T16:20:29.894Z,9.300000
2019-01-20T16:23:00.265Z,9.200000
2019-01-20T16:25:30.623Z,9.200000
2019-01-20T16:28:00.991Z,10.700000
2019-01-20T16:30:36.301Z,10.700000
2019-01-20T16:33:06.599Z,10.900000
2019-01-20T16:35:37.017Z,10.900000
2019-01-20T16:38:07.391Z,11.900000
2019-01-20T16:40:37.669Z,11.900000
2019-01-20T16:43:09.533Z,11.600000
2019-01-20T16:45:42.026Z,11.600000
2019-01-20T18:20:23.603Z,12.300000
2019-01-20T18:22:54.112Z,12.300000
2019-01-20T18:25:24.381Z,13.800000
2019-01-20T18:27:54.643Z,13.800000
2019-01-20T18:30:25.014Z,11.700000
2019-01-20T18:32:55.382Z,11.700000
2019-01-20T18:35:30.820Z,11.200000
2019-01-20T18:38:01.215Z,11.200000
2019-01-20T18:40:31.653Z,14.900000
2019-01-20T18:43:01.930Z,14.900000
2019-01-20T18:45:32.594Z,11.200000
2019-01-20T18:48:03.066Z,11.200000
2019-01-20T18:50:33.380Z,8.700000
2019-01-20T18:53:03.711Z,8.700000
2019-01-20T18:55:39.081Z,10.200000
2019-01-20T18:58:09.396Z,12.500000
2019-01-20T19:00:39.762Z,12.500000
2019-01-20T19:03:10.135Z,13.000000
2019-01-20T19:05:40.412Z,13.000000
2019-01-20T19:08:10.920Z,10.800000
2019-01-20T19:10:42.452Z,10.800000
2019-01-20T19:13:12.691Z,12.300000
2019-01-20T19:15:42.961Z,12.300000
2019-01-20T19:18:19.222Z,14.100000
2019-01-20T19:20:49.725Z,14.100000
2019-01-20T19:23:19.990Z,13.500000
2019-01-20T19:25:50.251Z,13.500000
2019-01-20T19:28:20.516Z,13.700000
2019-01-20T19:30:50.766Z,13.700000
2019-01-20T19:33:21.043Z,17.200000
2019-01-20T19:35:51.368Z,17.200000
2019-01-20T19:38:21.710Z,14.000000
2019-01-20T19:40:52.093Z,14.000000
2019-01-20T19:43:22.456Z,13.900000
2019-01-20T19:45:52.724Z,13.900000
2019-01-20T19:48:23.095Z,13.900000
2019-01-20T19:50:53.459Z,13.900000
2019-01-20T19:53:23.717Z,14.800000
2019-01-20T19:55:54.084Z,14.800000
2019-01-20T19:58:24.638Z,17.900000
2019-01-20T20:00:54.903Z,17.900000
2019-01-20T20:03:25.268Z,17.200000
2019-01-20T20:05:55.525Z,17.200000
2019-01-20T20:08:25.877Z,15.900000
2019-01-20T20:10:56.248Z,15.900000
2019-01-20T20:13:26.515Z,18.500000
2019-01-20T20:15:56.890Z,18.500000
2019-01-20T20:18:27.214Z,14.100000
2019-01-20T20:20:57.580Z,14.100000
2019-01-20T20:23:28.040Z,16.800000
2019-01-20T20:26:03.329Z,16.800000
2019-01-20T20:28:38.687Z,17.200000
2019-01-20T20:31:08.917Z,17.200000
2019-01-20T20:33:44.199Z,20.100000
2019-01-20T20:36:14.497Z,20.100000
2019-01-20T20:38:44.982Z,15.800000
2019-01-20T20:41:15.493Z,15.800000
2019-01-20T20:43:45.884Z,15.000000
2019-01-20T20:46:16.204Z,15.000000
2019-01-20T20:48:46.657Z,16.000000
2019-01-20T20:51:17.116Z,16.000000
2019-01-20T20:53:47.546Z,18.100000
2019-01-20T20:56:18.343Z,18.100000
2019-01-20T20:58:48.816Z,18.100000
2019-01-20T21:01:19.764Z,18.100000
2019-01-20T21:03:50.202Z,19.500000
2019-01-20T21:06:21.611Z,19.500000
2019-01-20T21:08:52.208Z,18.200000
2019-01-20T21:11:22.597Z,18.200000
2019-01-20T21:13:53.395Z,16.100000
2019-01-20T21:16:23.726Z,16.100000
2019-01-20T21:18:54.084Z,15.900000
2019-01-20T21:21:26.614Z,15.900000
2019-01-20T21:23:58.354Z,17.000000
2019-01-20T21:26:29.792Z,17.000000
2019-01-20T21:29:00.107Z,15.500000
2019-01-20T21:31:30.407Z,15.500000
2019-01-20T21:34:00.667Z,16.200000
2019-01-20T21:36:31.150Z,16.200000
2019-01-20T21:39:01.529Z,15.300000
2019-01-20T21:41:31.988Z,15.300000
2019-01-20T21:44:02.321Z,14.700000
2019-01-20T21:46:32.669Z,14.700000
2019-01-20T21:49:03.030Z,16.600000
2019-01-20T21:51:33.650Z,16.600000
2019-01-20T21:54:03.946Z,16.800000
2019-01-20T21:56:34.346Z,16.800000
2019-01-20T21:59:04.639Z,15.000000
2019-01-20T22:01:34.914Z,15.000000
2019-01-20T22:04:05.789Z,12.900000
2019-01-20T22:06:36.245Z,12.900000
2019-01-20T22:09:06.569Z,14.000000
2019-01-20T22:11:36.978Z,14.000000
2019-01-20T22:14:07.276Z,13.900000
2019-01-20T22:16:37.713Z,13.900000
2019-01-20T22:19:07.976Z,13.200000
2019-01-20T22:21:38.378Z,13.200000
2019-01-20T22:24:08.757Z,16.300000
2019-01-20T22:26:38.997Z,16.300000
2019-01-20T22:29:09.364Z,18.200000
2019-01-20T22:31:39.845Z,18.200000
2019-01-20T22:34:10.126Z,16.400000
2019-01-20T22:36:40.500Z,16.400000
2019-01-20T22:39:10.865Z,12.800000
2019-01-20T22:41:41.170Z,12.800000
2019-01-20T22:44:11.536Z,15.100000
2019-01-20T22:46:42.001Z,15.100000
2019-01-20T22:49:12.356Z,17.300000
2019-01-20T22:51:42.691Z,17.300000
2019-01-20T22:54:13.036Z,12.100000
2019-01-20T22:56:43.482Z,12.100000
2019-01-20T22:59:13.759Z,14.600000
2019-01-20T23:01:44.080Z,15.200000
2019-01-20T23:04:14.344Z,15.200000
2019-01-20T23:06:44.593Z,11.900000
2019-01-20T23:09:14.831Z,11.900000
2019-01-20T23:11:45.113Z,13.900000
2019-01-20T23:14:15.451Z,13.900000
2019-01-20T23:16:45.791Z,11.300000
2019-01-20T23:19:16.120Z,11.300000
2019-01-20T23:21:46.427Z,10.400000
2019-01-20T23:24:16.759Z,10.400000
2019-01-20T23:26:47.015Z,14.100000
2019-01-20T23:29:17.368Z,14.100000
2019-01-20T23:31:47.584Z,13.000000
2019-01-20T23:34:17.831Z,13.000000
2019-01-20T23:36:48.245Z,14.400000
2019-01-20T23:39:18.590Z,14.400000
2019-01-20T23:41:48.971Z,13.600000
2019-01-20T23:44:19.246Z,13.600000
2019-01-20T23:46:49.606Z,11.600000
2019-01-20T23:49:20.034Z,11.600000
2019-01-20T23:51:50.434Z,13.000000
2019-01-20T23:54:20.874Z,13.000000
2019-01-20T23:56:51.217Z,13.700000
2019-01-20T23:59:21.552Z,13.700000
